createdAt,value
2023-02-22T00:01:19.299Z,2.20
2023-02-22T00:09:46.734Z,1.70
2023-02-22T00:14:10.608Z,2.30
2023-02-22T00:18:35.534Z,3.90
2023-02-22T00:22:59.404Z,6.60
2023-02-22T00:27:45.187Z,2.50
2023-02-22T00:32:09.294Z,1.90
2023-02-22T00:36:33.334Z,3.50
2023-02-22T00:40:57.267Z,3.40
2023-02-22T00:45:21.250Z,1.90
2023-02-22T00:49:45.134Z,3.20
2023-02-22T00:54:09.200Z,2.60
2023-02-22T00:58:33.152Z,2.70
2023-02-22T01:02:58.223Z,2.10
2023-02-22T01:07:22.228Z,3.90
2023-02-22T01:11:46.194Z,14.30
2023-02-22T01:16:10.079Z,2.90
2023-02-22T01:20:34.090Z,3.00
2023-02-22T01:24:57.982Z,2.80
2023-02-22T01:29:21.211Z,2.70
2023-02-22T01:33:45.295Z,3.50
2023-02-22T01:38:09.176Z,2.20
2023-02-22T01:42:33.159Z,2.30
2023-02-22T01:46:59.680Z,4.50
2023-02-22T01:51:29.441Z,2.20
2023-02-22T01:55:53.339Z,4.90
2023-02-22T02:00:17.137Z,4.10
2023-02-22T02:04:41.134Z,4.10
2023-02-22T02:09:26.112Z,3.90
2023-02-22T02:13:50.039Z,10.40
2023-02-22T02:18:13.896Z,2.70
2023-02-22T02:22:43.696Z,5.10
2023-02-22T02:27:19.742Z,5.10
2023-02-22T02:31:53.008Z,2.90
2023-02-22T02:40:17.199Z,4.50
2023-02-22T02:44:41.423Z,2.70
2023-02-22T02:49:05.017Z,3.20
2023-02-22T02:53:27.866Z,4.60
2023-02-22T02:57:48.136Z,2.10
2023-02-22T03:02:12.104Z,3.90
2023-02-22T03:06:44.847Z,4.10
2023-02-22T03:11:23.410Z,2.70
2023-02-22T03:16:08.541Z,2.60
2023-02-22T03:20:39.389Z,2.00
2023-02-22T03:24:57.912Z,2.10
2023-02-22T03:29:21.849Z,2.30
2023-02-22T03:33:45.811Z,2.60
2023-02-22T03:38:09.747Z,11.40
2023-02-22T03:42:34.445Z,8.50
2023-02-22T03:46:58.478Z,5.80
2023-02-22T03:51:22.718Z,5.90
2023-02-22T03:55:46.978Z,2.30
2023-02-22T04:00:11.846Z,2.90
2023-02-22T04:04:17.134Z,5.10
2023-02-22T04:08:34.430Z,4.80
2023-02-22T04:12:58.275Z,6.10
2023-02-22T04:17:23.186Z,8.30
2023-02-22T04:21:47.063Z,6.40
2023-02-22T04:26:04.465Z,6.80
2023-02-22T04:30:28.438Z,4.40
2023-02-22T04:34:52.496Z,4.00
2023-02-22T04:39:16.583Z,4.00
2023-02-22T04:43:40.975Z,2.70
2023-02-22T04:48:10.701Z,2.80
2023-02-22T04:52:34.629Z,2.00
2023-02-22T04:56:59.903Z,2.20
2023-02-22T05:01:23.835Z,6.80
2023-02-22T05:05:47.891Z,5.40
2023-02-22T05:10:11.828Z,5.20
2023-02-22T05:14:28.221Z,2.30
2023-02-22T05:18:52.209Z,11.70
2023-02-22T05:23:16.042Z,7.00
2023-02-22T05:27:41.163Z,6.40
2023-02-22T05:32:05.217Z,8.10
2023-02-22T05:36:29.252Z,4.30
2023-02-22T05:40:53.135Z,2.70
2023-02-22T05:45:17.055Z,2.70
2023-02-22T05:49:41.343Z,4.40
2023-02-22T05:54:05.271Z,2.90
2023-02-22T05:58:29.678Z,12.20
2023-02-22T06:02:53.571Z,10.20
2023-02-22T06:07:18.863Z,9.40
2023-02-22T06:11:42.884Z,6.50
2023-02-22T06:16:06.972Z,10.10
2023-02-22T06:20:30.874Z,8.60
2023-02-22T06:24:47.254Z,14.20
2023-02-22T06:29:11.451Z,12.70
2023-02-22T06:33:35.492Z,5.70
2023-02-22T06:38:01.535Z,8.80
2023-02-22T06:42:07.931Z,15.00
2023-02-22T06:46:32.020Z,7.70
2023-02-22T06:51:04.632Z,5.30
2023-02-22T06:55:28.557Z,7.10
2023-02-22T06:59:52.493Z,11.50
2023-02-22T07:04:16.600Z,26.50
2023-02-22T07:08:40.501Z,15.60
2023-02-22T07:13:04.655Z,17.40
2023-02-22T07:17:21.243Z,48.60
2023-02-22T07:21:46.239Z,42.60
2023-02-22T07:26:10.093Z,30.70
2023-02-22T07:30:34.475Z,18.70
2023-02-22T07:34:58.518Z,19.80
2023-02-22T07:39:23.548Z,16.70
2023-02-22T07:43:59.450Z,25.10
2023-02-22T07:48:23.265Z,35.40
2023-02-22T07:52:47.905Z,35.80
2023-02-22T07:57:11.852Z,39.00
2023-02-22T08:01:29.223Z,20.50
2023-02-22T08:05:53.186Z,14.20
2023-02-22T08:10:18.079Z,13.40
2023-02-22T08:14:42.068Z,13.10
2023-02-22T08:19:06.342Z,7.80
2023-02-22T08:23:30.247Z,52.20
2023-02-22T08:27:49.853Z,13.00
2023-02-22T08:32:13.967Z,19.80
2023-02-22T08:36:30.616Z,7.80
2023-02-22T08:40:53.906Z,6.90
2023-02-22T08:45:06.804Z,6.90
2023-02-22T08:49:30.969Z,9.50
2023-02-22T08:53:54.864Z,6.50
2023-02-22T08:58:18.932Z,6.40
2023-02-22T09:02:42.774Z,5.80
2023-02-22T09:07:07.041Z,9.60
2023-02-22T09:11:30.879Z,5.80
2023-02-22T09:15:45.099Z,5.60
2023-02-22T09:20:09.193Z,6.50
2023-02-22T09:24:26.372Z,15.00
2023-02-22T09:28:51.447Z,9.70
2023-02-22T09:33:15.487Z,5.40
2023-02-22T09:37:38.111Z,5.50
2023-02-22T09:42:08.029Z,6.00
2023-02-22T09:46:50.088Z,5.40
2023-02-22T09:51:17.378Z,5.60
2023-02-22T09:55:47.562Z,10.80
2023-02-22T10:00:11.011Z,7.30
2023-02-22T10:04:40.518Z,7.20
2023-02-22T10:09:04.438Z,7.20
2023-02-22T10:13:34.128Z,21.20
2023-02-22T10:18:22.307Z,17.70
2023-02-22T10:22:58.541Z,14.60
2023-02-22T10:27:25.318Z,10.40
2023-02-22T10:31:52.255Z,8.40
2023-02-22T10:36:19.602Z,8.10
2023-02-22T10:40:44.606Z,9.70
2023-02-22T10:45:08.560Z,16.30
2023-02-22T10:49:32.543Z,6.80
2023-02-22T10:54:01.541Z,6.40
2023-02-22T10:58:25.502Z,8.20
2023-02-22T11:02:49.504Z,7.30
2023-02-22T11:07:19.337Z,9.00
2023-02-22T11:11:43.186Z,7.20
2023-02-22T11:16:24.557Z,6.20
2023-02-22T11:20:48.515Z,8.00
2023-02-22T11:25:13.449Z,4.60
2023-02-22T11:29:37.430Z,8.10
2023-02-22T11:34:01.473Z,8.90
2023-02-22T11:38:34.546Z,6.20
2023-02-22T11:42:58.468Z,6.40
2023-02-22T11:47:22.392Z,4.80
2023-02-22T11:51:55.244Z,5.50
2023-02-22T11:56:36.848Z,6.40
2023-02-22T12:01:05.638Z,7.00
2023-02-22T12:05:32.731Z,9.50
2023-02-22T12:09:59.550Z,10.20
2023-02-22T12:14:29.488Z,6.30
2023-02-22T12:18:55.996Z,5.60
2023-02-22T12:23:35.294Z,28.00
2023-02-22T12:28:00.266Z,28.10
2023-02-22T12:32:27.006Z,18.40
2023-02-22T12:36:51.187Z,31.30
2023-02-22T12:41:23.922Z,7.50
2023-02-22T12:45:47.891Z,7.10
2023-02-22T12:50:13.325Z,7.40
2023-02-22T12:58:50.709Z,6.50
2023-02-22T13:03:26.539Z,11.20
2023-02-22T13:07:50.435Z,22.10
2023-02-22T13:12:14.490Z,9.20
2023-02-22T13:16:59.751Z,23.50
2023-02-22T13:21:22.249Z,17.10
2023-02-22T13:25:58.371Z,10.70
2023-02-22T13:30:22.423Z,12.10
2023-02-22T13:34:55.416Z,14.90
2023-02-22T13:39:35.491Z,11.40
2023-02-22T13:44:03.906Z,10.40
2023-02-22T13:48:52.476Z,25.60
2023-02-22T13:53:16.436Z,14.20
2023-02-22T13:57:41.738Z,15.00
2023-02-22T14:02:26.080Z,14.90
2023-02-22T14:06:51.942Z,13.60
2023-02-22T14:11:17.325Z,8.50
2023-02-22T14:15:51.298Z,10.50
2023-02-22T14:20:18.046Z,9.80
2023-02-22T14:24:47.755Z,13.40
2023-02-22T14:29:14.229Z,11.10
2023-02-22T14:33:41.249Z,19.90
2023-02-22T14:38:09.638Z,31.80
2023-02-22T14:42:36.366Z,26.20
2023-02-22T14:47:00.361Z,25.10
2023-02-22T14:51:27.346Z,24.80
2023-02-22T14:55:59.223Z,30.80
2023-02-22T15:00:41.161Z,20.50
2023-02-22T15:05:18.053Z,14.80
2023-02-22T15:10:07.724Z,37.80
2023-02-22T15:14:32.630Z,22.70
2023-02-22T15:18:59.115Z,14.00
2023-02-22T15:23:23.160Z,26.40
2023-02-22T15:27:47.223Z,27.10
2023-02-22T15:32:17.342Z,15.10
2023-02-22T15:36:41.389Z,16.90
2023-02-22T15:41:17.741Z,18.30
2023-02-22T15:49:48.246Z,17.70
2023-02-22T15:54:27.579Z,14.00
2023-02-22T15:58:44.959Z,36.10
2023-02-22T16:03:17.770Z,38.30
2023-02-22T16:07:42.107Z,23.10
2023-02-22T16:12:14.939Z,18.30
2023-02-22T16:16:45.104Z,11.50
2023-02-22T16:21:12.052Z,9.10
2023-02-22T16:25:35.987Z,8.80
2023-02-22T16:29:59.036Z,10.70
2023-02-22T16:34:22.968Z,4.40
2023-02-22T16:38:49.785Z,7.00
2023-02-22T16:43:17.088Z,4.40
2023-02-22T16:47:41.068Z,5.50
2023-02-22T16:52:07.835Z,2.20
2023-02-22T16:56:31.757Z,2.20
2023-02-22T17:00:57.117Z,3.10
2023-02-22T17:05:20.518Z,2.80
2023-02-22T17:09:45.117Z,1.80
2023-02-22T17:14:09.067Z,3.30
2023-02-22T17:18:32.980Z,3.00
2023-02-22T17:22:57.204Z,3.90
2023-02-22T17:27:21.054Z,2.80
2023-02-22T17:31:28.361Z,3.40
2023-02-22T17:35:53.966Z,2.90
2023-02-22T17:40:17.718Z,2.10
2023-02-22T17:44:41.696Z,2.60
2023-02-22T17:49:05.780Z,2.90
2023-02-22T17:53:32.697Z,3.60
2023-02-22T17:57:56.744Z,2.90
2023-02-22T18:02:27.340Z,2.20
2023-02-22T18:06:41.271Z,2.90
2023-02-22T18:11:05.375Z,5.20
2023-02-22T18:15:12.364Z,3.30
2023-02-22T18:19:39.613Z,2.70
2023-02-22T18:24:23.739Z,1.90
2023-02-22T18:28:47.696Z,3.80
2023-02-22T18:33:11.543Z,3.20
2023-02-22T18:37:35.601Z,3.60
2023-02-22T18:42:02.580Z,3.00
2023-02-22T18:46:26.562Z,2.40
2023-02-22T18:50:50.597Z,3.10
2023-02-22T18:55:14.681Z,2.10
2023-02-22T18:59:39.622Z,4.10
2023-02-22T19:04:03.371Z,3.10
2023-02-22T19:08:27.345Z,3.10
2023-02-22T19:12:53.639Z,6.50
2023-02-22T19:17:10.366Z,2.40
2023-02-22T19:21:37.255Z,4.10
2023-02-22T19:30:05.062Z,4.00
2023-02-22T19:34:27.763Z,5.40
2023-02-22T19:39:00.266Z,3.80
2023-02-22T19:43:25.211Z,5.10
2023-02-22T19:47:49.185Z,3.30
2023-02-22T19:52:13.435Z,6.30
2023-02-22T19:56:37.703Z,3.80
2023-02-22T20:01:01.657Z,4.50
2023-02-22T20:05:25.777Z,4.80
2023-02-22T20:09:49.475Z,5.80
2023-02-22T20:14:14.533Z,5.00
2023-02-22T20:18:38.514Z,7.00
2023-02-22T20:23:02.425Z,8.20
2023-02-22T20:27:26.504Z,9.40
2023-02-22T20:31:52.238Z,8.00
2023-02-22T20:36:17.575Z,9.80
2023-02-22T20:40:41.511Z,8.50
2023-02-22T20:45:19.285Z,20.50
2023-02-22T20:49:43.129Z,13.10
2023-02-22T20:54:07.031Z,9.00
2023-02-22T20:58:31.349Z,9.20
2023-02-22T21:02:57.291Z,27.20
2023-02-22T21:07:24.244Z,40.90
2023-02-22T21:11:48.302Z,35.40
2023-02-22T21:16:12.272Z,14.60
2023-02-22T21:20:35.060Z,13.10
2023-02-22T21:24:52.439Z,10.30
2023-02-22T21:29:16.038Z,10.30
2023-02-22T21:33:41.094Z,9.40
2023-02-22T21:37:56.640Z,9.50
2023-02-22T21:42:21.624Z,16.00
2023-02-22T21:46:29.553Z,14.80
2023-02-22T21:50:46.342Z,12.60
2023-02-22T21:55:10.199Z,14.70
2023-02-22T21:59:36.783Z,101.00
2023-02-22T22:08:07.316Z,57.00
2023-02-22T22:12:39.227Z,35.00
2023-02-22T22:17:16.508Z,33.50
2023-02-22T22:21:40.436Z,34.00
2023-02-22T22:26:05.336Z,42.90
2023-02-22T22:30:29.291Z,26.40
2023-02-22T22:34:52.999Z,43.10
2023-02-22T22:39:16.988Z,83.70
2023-02-22T22:43:40.957Z,73.30
2023-02-22T22:48:06.006Z,25.40
2023-02-22T22:52:30.002Z,34.30
2023-02-22T22:56:56.524Z,50.50
2023-02-22T23:01:21.249Z,23.60
2023-02-22T23:05:45.326Z,18.20
2023-02-22T23:10:09.059Z,14.50
2023-02-22T23:14:32.919Z,19.60
2023-02-22T23:18:57.799Z,58.40
2023-02-22T23:23:06.731Z,58.80
2023-02-22T23:27:30.802Z,53.90
2023-02-22T23:31:54.839Z,14.10
2023-02-22T23:36:18.833Z,48.50
2023-02-22T23:40:42.735Z,43.00
2023-02-22T23:45:06.742Z,40.80
2023-02-22T23:49:22.842Z,40.10
2023-02-22T23:53:46.769Z,41.00
2023-02-22T23:58:03.474Z,31.70
